Time;durP1;ratioP1;P1;durP2;ratioP2;P2;SDS_P1;SDS_P2;PMS_P1;PMS_P2;Temp;Humidity;BMP_temperature;BMP_pressure;BME280_temperature;BME280_humidity;BME280_pressure;Samples;Min_cycle;Max_cycle;Signal;HPM_P1;HPM_P2
2022/08/28 00:00:27;;;;;;;19.20;13.83;;;;;;;16.28;100.00;98580.56;4965541;28;20765;-55
2022/08/28 00:02:55;;;;;;;19.57;14.60;;;;;;;16.26;100.00;98587.06;4955336;28;20258;-52
2022/08/28 00:05:24;;;;;;;19.67;14.90;;;;;;;16.27;100.00;98584.22;4958487;28;20911;-53
2022/08/28 00:07:51;;;;;;;21.13;15.10;;;;;;;16.24;100.00;98581.97;4966038;28;20248;-52
2022/08/28 00:10:20;;;;;;;24.37;16.87;;;;;;;16.25;100.00;98574.88;4955606;28;20263;-53
2022/08/28 00:12:49;;;;;;;21.67;15.80;;;;;;;16.24;100.00;98579.31;4957912;28;20250;-55
2022/08/28 00:15:23;;;;;;;19.83;16.17;;;;;;;16.22;100.00;98579.53;4952202;28;20654;-54
2022/08/28 00:17:50;;;;;;;20.63;15.90;;;;;;;16.20;100.00;98565.72;4959482;28;20239;-54
2022/08/28 00:20:19;;;;;;;20.90;14.83;;;;;;;16.18;100.00;98569.53;4943987;28;20280;-56
2022/08/28 00:22:47;;;;;;;24.57;16.40;;;;;;;16.20;100.00;98565.72;4955995;28;20245;-55
2022/08/28 00:25:16;;;;;;;26.93;16.80;;;;;;;16.19;100.00;98576.44;4949124;28;20244;-56
2022/08/28 00:27:51;;;;;;;20.80;15.20;;;;;;;16.19;100.00;98572.00;4953470;28;20248;-54
2022/08/28 00:30:21;;;;;;;20.80;15.97;;;;;;;16.25;100.00;98578.31;4956345;28;20242;-54
2022/08/28 00:32:48;;;;;;;19.23;16.07;;;;;;;16.20;100.00;98575.44;4947656;28;20764;-54
2022/08/28 00:35:16;;;;;;;23.60;16.90;;;;;;;16.26;100.00;98571.25;4944091;28;20251;-53
2022/08/28 00:37:43;;;;;;;19.93;15.60;;;;;;;16.21;100.00;98577.91;4940297;28;20239;-53
2022/08/28 00:40:12;;;;;;;17.53;15.33;;;;;;;16.19;100.00;98579.06;4947312;28;20240;-54
2022/08/28 00:42:38;;;;;;;19.93;14.77;;;;;;;16.19;100.00;98576.44;4943480;28;20264;-56
2022/08/28 00:45:06;;;;;;;18.37;14.60;;;;;;;16.13;100.00;98572.75;4942887;28;20252;-53
2022/08/28 00:47:35;;;;;;;22.20;14.80;;;;;;;16.09;100.00;98574.94;4961104;28;20684;-53
2022/08/28 00:50:02;;;;;;;18.33;15.10;;;;;;;16.06;100.00;98575.31;4965371;28;20242;-56
2022/08/28 00:52:28;;;;;;;18.83;15.50;;;;;;;16.16;100.00;98576.81;4965536;28;20230;-54
2022/08/28 00:54:59;;;;;;;20.03;14.40;;;;;;;16.12;100.00;98575.56;4966943;28;20351;-55
2022/08/28 00:57:30;;;;;;;20.43;13.87;;;;;;;16.06;100.00;98575.31;4964162;28;20597;-57
2022/08/28 00:59:58;;;;;;;18.97;13.33;;;;;;;16.12;100.00;98568.50;4969760;28;20237;-55
2022/08/28 01:02:25;;;;;;;16.33;13.57;;;;;;;16.05;100.00;98576.31;4965616;28;20242;-56
2022/08/28 01:04:54;;;;;;;17.37;13.17;;;;;;;15.99;100.00;98571.78;4969652;28;20235;-54
2022/08/28 01:07:22;;;;;;;17.23;12.97;;;;;;;15.98;100.00;98575.44;4962759;28;20337;-56
2022/08/28 01:09:52;;;;;;;19.20;12.40;;;;;;;15.99;100.00;98581.53;4969960;28;20280;-55
2022/08/28 01:12:21;;;;;;;14.50;12.07;;;;;;;15.92;100.00;98576.16;4954719;28;20258;-55
2022/08/28 01:14:51;;;;;;;17.40;11.70;;;;;;;15.89;100.00;98574.75;4949770;28;20330;-55
2022/08/28 01:17:22;;;;;;;14.47;11.67;;;;;;;15.86;100.00;98576.91;4947111;28;20235;-56
2022/08/28 01:19:57;;;;;;;15.77;12.20;;;;;;;15.82;100.00;98576.44;4959124;28;20327;-56
2022/08/28 01:22:32;;;;;;;17.57;13.00;;;;;;;15.78;100.00;98578.66;4954860;28;20395;-56
2022/08/28 01:25:03;;;;;;;15.20;12.53;;;;;;;15.78;100.00;98576.03;4946992;28;20239;-56
2022/08/28 01:27:29;;;;;;;17.53;12.90;;;;;;;15.74;100.00;98572.13;4948421;28;20264;-55
2022/08/28 01:29:56;;;;;;;19.17;12.73;;;;;;;15.71;100.00;98576.94;4947717;28;20233;-56
2022/08/28 01:32:30;;;;;;;15.87;12.63;;;;;;;15.66;100.00;98569.59;4956407;28;20635;-56
2022/08/28 01:34:57;;;;;;;17.20;12.10;;;;;;;15.64;100.00;98576.88;4967770;28;20254;-56
2022/08/28 01:37:24;;;;;;;15.00;11.17;;;;;;;15.65;100.00;98581.94;4958256;28;20631;-56
2022/08/28 01:39:54;;;;;;;19.20;12.00;;;;;;;15.71;100.00;98580.41;4948928;28;20242;-55
2022/08/28 01:42:22;;;;;;;20.60;12.47;;;;;;;15.62;100.00;98581.50;4946373;28;20625;-55
2022/08/28 01:44:51;;;;;;;15.17;12.43;;;;;;;15.67;100.00;98581.78;4960105;28;20235;-56
2022/08/28 01:47:18;;;;;;;16.97;12.23;;;;;;;15.70;100.00;98583.19;4950676;28;20240;-53
2022/08/28 01:49:45;;;;;;;17.10;12.83;;;;;;;15.68;100.00;98582.56;4961775;28;20239;-53
2022/08/28 01:52:12;;;;;;;16.03;13.17;;;;;;;15.63;100.00;98583.13;4963860;28;20231;-56
2022/08/28 01:54:39;;;;;;;16.67;12.97;;;;;;;15.62;100.00;98584.13;4968191;28;20250;-53
2022/08/28 01:57:06;;;;;;;19.57;13.30;;;;;;;15.61;100.00;98585.13;4962353;28;20241;-54
2022/08/28 01:59:53;;;;;;;16.70;12.53;;;;;;;15.59;100.00;98585.31;4954991;28;20246;-54
2022/08/28 02:02:20;;;;;;;18.53;13.87;;;;;;;15.56;100.00;98585.66;4947516;28;20232;-52
2022/08/28 02:04:46;;;;;;;17.80;13.47;;;;;;;15.58;100.00;98582.88;4949729;28;20240;-55
2022/08/28 02:07:15;;;;;;;18.27;13.27;;;;;;;15.54;100.00;98574.50;4949133;28;20249;-55
2022/08/28 02:09:42;;;;;;;18.90;13.10;;;;;;;15.60;100.00;98581.66;4953891;28;20299;-53
2022/08/28 02:12:09;;;;;;;17.00;12.47;;;;;;;15.57;100.00;98584.66;4945242;28;20234;-53
2022/08/28 02:14:37;;;;;;;18.90;13.00;;;;;;;15.54;100.00;98585.03;4943309;28;20241;-55
2022/08/28 02:17:05;;;;;;;17.13;12.83;;;;;;;15.53;100.00;98586.03;4940156;28;20607;-55
2022/08/28 02:19:32;;;;;;;16.77;13.00;;;;;;;15.49;100.00;98588.22;4956885;28;20331;-54
2022/08/28 02:21:59;;;;;;;15.50;11.83;;;;;;;15.49;100.00;98590.03;4960050;28;20248;-55
2022/08/28 02:24:25;;;;;;;14.80;10.67;;;;;;;15.52;100.00;98594.13;4963128;28;20240;-54
2022/08/28 02:26:52;;;;;;;14.57;11.47;;;;;;;15.51;100.00;98595.94;4973318;28;20728;-55
2022/08/28 02:29:19;;;;;;;14.07;10.37;;;;;;;15.56;100.00;98588.31;4968245;28;20786;-54
2022/08/28 02:31:45;;;;;;;13.57;10.50;;;;;;;15.59;100.00;98595.81;4969894;28;20320;-54
2022/08/28 02:34:13;;;;;;;13.20;11.63;;;;;;;15.62;100.00;98592.03;4970864;28;20227;-53
2022/08/28 02:36:41;;;;;;;16.27;11.63;;;;;;;15.72;100.00;98589.91;4971381;28;20254;-53
2022/08/28 02:39:08;;;;;;;15.23;10.70;;;;;;;15.68;100.00;98588.66;4969466;28;20774;-53
2022/08/28 02:41:35;;;;;;;15.73;12.23;;;;;;;15.75;100.00;98584.28;4972387;28;20242;-52
2022/08/28 02:44:02;;;;;;;14.20;11.17;;;;;;;15.87;100.00;98584.63;4973784;28;20277;-55
2022/08/28 02:46:29;;;;;;;15.30;12.40;;;;;;;15.89;100.00;98580.00;4969914;28;20332;-56
2022/08/28 02:48:55;;;;;;;15.03;11.37;;;;;;;15.82;100.00;98575.66;5010818;23;20707;-56
2022/08/28 02:51:23;;;;;;;15.50;11.20;;;;;;;15.78;100.00;98570.75;4982848;28;20313;-57
2022/08/28 02:53:51;;;;;;;14.90;11.27;;;;;;;15.77;100.00;98570.94;5003949;28;20229;-56
2022/08/28 02:56:18;;;;;;;14.57;11.07;;;;;;;15.71;100.00;98571.66;4999498;28;20312;-57
2022/08/28 02:58:44;;;;;;;15.30;10.67;;;;;;;15.65;100.00;98568.78;5001681;28;20699;-55
2022/08/28 03:01:12;;;;;;;14.53;10.73;;;;;;;15.63;100.00;98572.63;4998173;28;20235;-55
2022/08/28 03:03:40;;;;;;;12.50;9.83;;;;;;;15.61;100.00;98558.81;5001603;28;20430;-55
2022/08/28 03:06:07;;;;;;;13.60;9.83;;;;;;;15.71;100.00;98561.16;5001651;28;20321;-54
2022/08/28 03:08:36;;;;;;;17.00;11.40;;;;;;;15.67;100.00;98576.50;5004831;28;20695;-56
2022/08/28 03:11:02;;;;;;;15.83;11.10;;;;;;;15.64;100.00;98564.50;5002382;28;20733;-56
2022/08/28 03:13:30;;;;;;;13.73;11.23;;;;;;;15.69;100.00;98563.16;5001286;28;20359;-54
2022/08/28 03:15:57;;;;;;;11.20;10.00;;;;;;;15.69;100.00;98560.50;5001729;28;20680;-56
2022/08/28 03:18:25;;;;;;;11.37;8.90;;;;;;;15.61;100.00;98561.47;5000243;28;20233;-56
2022/08/28 03:20:52;;;;;;;15.27;10.17;;;;;;;15.58;100.00;98567.09;5002076;28;20290;-55
2022/08/28 03:23:28;;;;;;;14.63;10.03;;;;;;;15.63;100.00;98564.72;4997398;28;20265;-55
2022/08/28 03:26:00;;;;;;;11.83;10.60;;;;;;;15.59;100.00;98568.72;5004102;28;20742;-58
2022/08/28 03:28:29;;;;;;;12.40;10.30;;;;;;;15.57;100.00;98565.47;5001204;28;20238;-56
2022/08/28 03:30:56;;;;;;;14.60;10.37;;;;;;;15.55;100.00;98568.25;5000921;28;20239;-56
2022/08/28 03:33:23;;;;;;;15.13;10.73;;;;;;;15.56;100.00;98566.47;4999029;28;20302;-56
2022/08/28 03:35:50;;;;;;;15.87;10.37;;;;;;;15.57;100.00;98568.88;5004850;28;20235;-56
2022/08/28 03:38:18;;;;;;;12.73;10.70;;;;;;;15.58;100.00;98573.16;5002351;28;20949;-56
2022/08/28 03:40:46;;;;;;;11.60;10.33;;;;;;;15.56;100.00;98571.72;5001252;28;20237;-55
2022/08/28 03:43:17;;;;;;;11.80;10.10;;;;;;;15.51;100.00;98572.25;4999817;28;20791;-56
2022/08/28 03:45:52;;;;;;;13.60;9.73;;;;;;;15.56;100.00;98571.72;4999088;28;20238;-55
2022/08/28 03:48:19;;;;;;;16.97;9.93;;;;;;;15.56;100.00;98572.50;5001147;28;20225;-54
2022/08/28 03:50:46;;;;;;;11.33;10.00;;;;;;;15.53;100.00;98574.72;5001824;28;20318;-55
2022/08/28 03:53:13;;;;;;;11.30;9.30;;;;;;;15.53;100.00;98572.09;4999146;28;20256;-55
2022/08/28 03:55:41;;;;;;;15.40;9.73;;;;;;;15.50;100.00;98568.00;5003567;28;20265;-53
2022/08/28 03:58:08;;;;;;;11.37;10.03;;;;;;;15.53;100.00;98572.88;4998630;28;20722;-54
2022/08/28 04:00:36;;;;;;;12.40;9.33;;;;;;;15.50;100.00;98568.81;5001010;28;20601;-56
2022/08/28 04:03:03;;;;;;;13.87;9.50;;;;;;;15.44;100.00;98569.56;5001198;28;20242;-56
2022/08/28 04:05:30;;;;;;;15.17;9.77;;;;;;;15.43;100.00;98567.09;4998831;28;20300;-56
2022/08/28 04:07:56;;;;;;;12.07;9.37;;;;;;;15.41;100.00;98569.09;5003765;28;20534;-54
2022/08/28 04:10:23;;;;;;;11.70;9.23;;;;;;;15.38;100.00;98572.09;4998527;28;20302;-55
2022/08/28 04:12:50;;;;;;;15.57;9.33;;;;;;;15.37;100.00;98581.00;5001606;28;20325;-52
2022/08/28 04:15:17;;;;;;;13.57;9.30;;;;;;;15.33;100.00;98577.91;4998286;28;20220;-55
2022/08/28 04:17:45;;;;;;;15.10;9.87;;;;;;;15.34;100.00;98575.13;5002293;28;20576;-56
2022/08/28 04:20:12;;;;;;;13.97;9.13;;;;;;;15.38;100.00;98574.72;4998138;28;20683;-53
2022/08/28 04:22:39;;;;;;;12.50;9.17;;;;;;;15.40;100.00;98573.56;5001726;28;20238;-56
2022/08/28 04:25:07;;;;;;;12.43;8.93;;;;;;;15.37;100.00;98584.44;4996569;28;20224;-56
2022/08/28 04:27:52;;;;;;;13.07;9.87;;;;;;;15.34;100.00;98575.13;5001800;28;20390;-55
2022/08/28 04:30:19;;;;;;;10.67;8.60;;;;;;;15.31;100.00;98577.28;4999248;28;20240;-55
2022/08/28 04:32:47;;;;;;;11.93;9.17;;;;;;;15.28;100.00;98575.00;5001992;28;20243;-55
2022/08/28 04:35:15;;;;;;;12.27;8.93;;;;;;;15.27;100.00;98579.47;4997876;28;20231;-56
2022/08/28 04:37:43;;;;;;;11.83;8.67;;;;;;;15.26;100.00;98588.34;5000374;28;20306;-54
2022/08/28 04:40:11;;;;;;;10.33;8.73;;;;;;;15.18;100.00;98576.09;4999072;28;21052;-56
2022/08/28 04:42:39;;;;;;;10.70;8.93;;;;;;;15.15;100.00;98576.47;4999577;28;20233;-55
2022/08/28 04:45:07;;;;;;;12.87;8.57;;;;;;;15.16;100.00;98575.47;4999739;28;20578;-55
2022/08/28 04:47:36;;;;;;;15.17;8.60;;;;;;;15.11;100.00;98571.75;5000753;28;20686;-56
2022/08/28 04:50:06;;;;;;;10.37;8.17;;;;;;;15.08;100.00;98586.06;5001441;28;20254;-55
2022/08/28 04:52:33;;;;;;;12.43;9.63;;;;;;;15.17;100.00;98589.44;4994938;28;20234;-55
2022/08/28 04:55:00;;;;;;;11.93;9.90;;;;;;;15.16;100.00;98579.91;5000497;28;20230;-55
2022/08/28 04:57:27;;;;;;;13.57;9.17;;;;;;;15.18;100.00;98584.00;4995029;28;20257;-55
2022/08/28 05:00:13;;;;;;;11.37;9.17;;;;;;;15.20;100.00;98582.00;4999593;28;20229;-55
2022/08/28 05:02:40;;;;;;;12.40;9.57;;;;;;;15.23;100.00;98580.00;5002954;28;21933;-54
2022/08/28 05:05:09;;;;;;;11.90;9.53;;;;;;;15.27;100.00;98581.28;4996679;28;20249;-56
2022/08/28 05:07:35;;;;;;;11.63;8.73;;;;;;;15.29;100.00;98592.41;4999488;28;20234;-56
2022/08/28 05:10:02;;;;;;;15.27;9.10;;;;;;;15.31;100.00;98595.69;5001057;28;20260;-53
2022/08/28 05:12:29;;;;;;;9.93;8.90;;;;;;;15.33;100.00;98593.69;4997819;28;20234;-55
2022/08/28 05:14:56;;;;;;;10.47;8.93;;;;;;;15.45;100.00;98588.75;5003985;28;20227;-55
2022/08/28 05:17:22;;;;;;;10.97;9.13;;;;;;;15.46;100.00;98599.13;4999022;28;20230;-56
2022/08/28 05:19:49;;;;;;;10.87;8.67;;;;;;;15.45;100.00;98602.75;5002489;28;20234;-54
2022/08/28 05:22:17;;;;;;;11.47;9.10;;;;;;;15.46;100.00;98601.75;4996456;28;20252;-55
2022/08/28 05:24:44;;;;;;;12.07;9.47;;;;;;;15.49;100.00;98611.06;5000686;28;20360;-55
2022/08/28 05:27:10;;;;;;;16.73;9.53;;;;;;;15.57;100.00;98615.44;4999537;28;20221;-54
2022/08/28 05:29:37;;;;;;;10.30;8.60;;;;;;;15.61;100.00;98608.81;5001507;28;20242;-55
2022/08/28 05:32:05;;;;;;;11.77;8.87;;;;;;;15.68;100.00;98617.59;4999630;28;20752;-53
2022/08/28 05:34:31;;;;;;;12.03;8.40;;;;;;;15.73;100.00;98615.25;4998711;28;20230;-54
2022/08/28 05:36:58;;;;;;;13.77;8.53;;;;;;;15.85;100.00;98620.81;5000792;28;20296;-55
2022/08/28 05:39:26;;;;;;;11.93;9.20;;;;;;;15.90;100.00;98617.69;4998157;28;24789;-53
2022/08/28 05:41:53;;;;;;;10.83;8.50;;;;;;;15.95;100.00;98615.28;5000919;28;20828;-55
2022/08/28 05:44:19;;;;;;;11.67;8.80;;;;;;;16.01;100.00;98608.47;4999462;28;20228;-53
2022/08/28 05:46:47;;;;;;;15.70;9.30;;;;;;;16.08;100.00;98609.38;4999312;28;20679;-54
2022/08/28 05:49:35;;;;;;;12.03;9.03;;;;;;;16.16;100.00;98617.16;4998139;28;20718;-55
2022/08/28 05:52:02;;;;;;;10.23;8.13;;;;;;;16.26;100.00;98616.03;5000339;28;20242;-55
2022/08/28 05:54:30;;;;;;;11.03;8.13;;;;;;;16.28;100.00;98616.66;4996488;28;20241;-56
2022/08/28 05:56:57;;;;;;;12.57;9.00;;;;;;;16.34;100.00;98621.16;5001412;28;20265;-56
2022/08/28 05:59:24;;;;;;;11.20;8.20;;;;;;;16.40;100.00;98622.22;4999660;28;20780;-55
2022/08/28 06:01:51;;;;;;;10.70;8.30;;;;;;;16.43;100.00;98625.28;5000213;28;20245;-56
2022/08/28 06:04:21;;;;;;;9.90;7.90;;;;;;;16.48;100.00;98624.72;4996029;28;20241;-55
2022/08/28 06:06:48;;;;;;;12.77;8.60;;;;;;;16.52;100.00;98623.34;5000686;28;20253;-55
2022/08/28 06:09:19;;;;;;;11.67;8.40;;;;;;;16.60;100.00;98623.22;4998290;28;20247;-56
2022/08/28 06:11:48;;;;;;;10.93;8.20;;;;;;;16.64;100.00;98621.81;4998649;28;20243;-55
2022/08/28 06:14:18;;;;;;;10.03;8.67;;;;;;;16.72;100.00;98631.41;4997908;28;20618;-54
2022/08/28 06:16:49;;;;;;;9.47;8.37;;;;;;;16.82;100.00;98631.09;5001066;28;20231;-56
2022/08/28 06:19:17;;;;;;;9.87;8.13;;;;;;;16.90;100.00;98628.31;4996354;28;20238;-54
2022/08/28 06:21:45;;;;;;;9.83;7.60;;;;;;;16.99;100.00;98629.00;4999612;28;20313;-55
2022/08/28 06:24:12;;;;;;;9.97;8.13;;;;;;;17.08;100.00;98633.13;4997542;28;20235;-55
2022/08/28 06:26:39;;;;;;;9.83;7.70;;;;;;;17.17;100.00;98641.69;4997535;28;20740;-54
2022/08/28 06:29:11;;;;;;;10.43;8.13;;;;;;;17.23;100.00;98651.47;4996456;28;20715;-55
2022/08/28 06:31:38;;;;;;;11.73;9.87;;;;;;;17.28;100.00;98653.53;4999241;28;20267;-56
2022/08/28 06:34:05;;;;;;;15.13;12.23;;;;;;;17.38;100.00;98658.47;5001539;28;20232;-55
2022/08/28 06:36:36;;;;;;;18.23;14.07;;;;;;;17.39;100.00;98663.56;4997582;28;20600;-55
2022/08/28 06:39:04;;;;;;;20.90;13.50;;;;;;;17.50;100.00;98656.06;4996990;28;20232;-55
2022/08/28 06:41:33;;;;;;;16.10;13.67;;;;;;;17.56;100.00;98657.94;4978874;28;20245;-56
2022/08/28 06:44:00;;;;;;;15.03;12.77;;;;;;;17.59;100.00;98659.38;4980433;28;20272;-56
2022/08/28 06:46:29;;;;;;;17.77;12.13;;;;;;;17.65;100.00;98659.41;4976251;28;20240;-56
2022/08/28 06:48:56;;;;;;;15.93;13.57;;;;;;;17.77;100.00;98664.13;4982219;28;20238;-56
2022/08/28 06:51:22;;;;;;;17.00;13.97;;;;;;;17.89;100.00;98664.41;4978761;28;20228;-56
2022/08/28 06:53:49;;;;;;;15.97;13.93;;;;;;;17.99;100.00;98667.47;4981047;28;20251;-54
2022/08/28 06:56:18;;;;;;;19.60;15.33;;;;;;;18.07;100.00;98671.78;4977204;28;20344;-55
2022/08/28 06:58:47;;;;;;;17.00;13.10;;;;;;;18.23;100.00;98675.88;4980682;28;20233;-55
2022/08/28 07:01:35;;;;;;;16.10;13.43;;;;;;;18.28;100.00;98676.09;4976485;28;20256;-56
2022/08/28 07:04:06;;;;;;;20.83;15.40;;;;;;;18.40;100.00;98676.34;4978621;28;20240;-55
2022/08/28 07:06:35;;;;;;;18.87;13.87;;;;;;;18.56;100.00;98685.72;4979641;28;20303;-56
2022/08/28 07:09:01;;;;;;;21.53;14.87;;;;;;;18.63;100.00;98681.25;4983901;28;20229;-56
2022/08/28 07:11:32;;;;;;;18.77;14.03;;;;;;;18.72;100.00;98689.78;4980362;28;20240;-56
2022/08/28 07:14:00;;;;;;;19.13;14.73;;;;;;;18.78;100.00;98686.34;4981637;28;20319;-55
2022/08/28 07:16:29;;;;;;;17.53;15.43;;;;;;;18.89;100.00;98693.66;4980198;28;20658;-55
2022/08/28 07:18:58;;;;;;;20.17;13.87;;;;;;;18.92;99.36;98692.47;4983405;28;20255;-55
2022/08/28 07:21:26;;;;;;;17.13;14.20;;;;;;;19.05;99.25;98698.81;4980177;28;22411;-56
2022/08/28 07:23:53;;;;;;;16.40;13.53;;;;;;;19.09;99.95;98700.81;4984268;28;20242;-56
2022/08/28 07:26:22;;;;;;;16.80;14.40;;;;;;;19.17;98.76;98700.63;4980497;28;20763;-56
2022/08/28 07:28:49;;;;;;;17.90;14.63;;;;;;;19.05;98.53;98706.75;4981483;28;20270;-55
2022/08/28 07:31:18;;;;;;;17.90;13.10;;;;;;;19.15;99.14;98702.66;4981035;28;20209;-56
2022/08/28 07:33:45;;;;;;;15.23;13.60;;;;;;;19.35;99.14;98709.75;4985120;28;20242;-55
2022/08/28 07:36:17;;;;;;;16.20;13.13;;;;;;;19.35;98.00;98703.63;4983320;28;20222;-55
2022/08/28 07:38:44;;;;;;;15.70;12.57;;;;;;;19.51;97.53;98708.50;4982400;28;20638;-55
2022/08/28 07:41:14;;;;;;;16.80;12.43;;;;;;;19.60;97.27;98704.59;4980650;28;20237;-53
2022/08/28 07:46:25;;;;;;;17.70;13.30;;;;;;;19.79;94.72;98709.22;4978733;28;20244;-55
2022/08/28 07:48:53;;;;;;;14.83;13.17;;;;;;;20.00;92.49;98710.84;4983891;28;20293;-56
2022/08/28 07:51:21;;;;;;;14.63;11.77;;;;;;;20.21;91.25;98715.81;4981788;28;20630;-55
2022/08/28 07:53:47;;;;;;;14.80;11.13;;;;;;;20.48;90.69;98714.88;4982039;28;20246;-56
2022/08/28 07:56:14;;;;;;;13.37;11.17;;;;;;;20.68;89.54;98722.69;4978908;28;20791;-55
2022/08/28 07:58:41;;;;;;;14.10;11.80;;;;;;;20.78;87.50;98722.22;4983459;28;20361;-56
2022/08/28 08:01:08;;;;;;;11.50;10.30;;;;;;;21.09;84.40;98721.41;4979666;28;20233;-55
2022/08/28 08:03:34;;;;;;;14.30;10.43;;;;;;;21.30;85.23;98729.97;4982780;28;20231;-56
2022/08/28 08:06:04;;;;;;;12.13;10.50;;;;;;;21.42;83.77;98727.44;4983422;28;20616;-55
2022/08/28 08:08:34;;;;;;;12.93;10.73;;;;;;;21.71;80.94;98730.44;4980264;28;20243;-55
2022/08/28 08:11:03;;;;;;;13.13;10.03;;;;;;;21.76;81.91;98737.72;4983129;28;20311;-56
2022/08/28 08:13:31;;;;;;;11.30;9.60;;;;;;;21.85;79.03;98738.25;4979171;28;20235;-56
2022/08/28 08:16:02;;;;;;;12.63;9.80;;;;;;;21.69;78.67;98743.13;4983571;28;20580;-56
2022/08/28 08:18:28;;;;;;;9.63;8.63;;;;;;;21.77;80.96;98744.66;4979780;28;20250;-55
2022/08/28 08:20:55;;;;;;;13.00;10.03;;;;;;;21.42;80.69;98742.53;4983878;28;20241;-54
2022/08/28 08:23:22;;;;;;;15.83;9.90;;;;;;;21.68;80.26;98752.13;4983268;28;20233;-54
2022/08/28 08:26:11;;;;;;;10.83;9.50;;;;;;;21.91;80.18;98745.31;4981712;28;20232;-56
2022/08/28 08:28:39;;;;;;;9.93;8.83;;;;;;;22.12;76.72;98758.16;4979813;28;20227;-55
2022/08/28 08:31:08;;;;;;;9.27;8.37;;;;;;;22.26;76.87;98753.47;4978428;28;20234;-56
2022/08/28 08:33:37;;;;;;;10.47;9.30;;;;;;;22.39;75.69;98762.31;4984144;28;20246;-55
2022/08/28 08:36:04;;;;;;;9.23;8.23;;;;;;;22.46;76.72;98763.06;4982769;28;20333;-55
2022/08/28 08:38:33;;;;;;;10.10;9.00;;;;;;;22.81;74.31;98765.03;4981280;28;20249;-55
2022/08/28 08:41:01;;;;;;;10.13;8.90;;;;;;;22.64;74.02;98769.38;4984943;28;20233;-55
2022/08/28 08:43:33;;;;;;;12.60;9.10;;;;;;;22.41;75.03;98766.41;4979069;28;20251;-55
2022/08/28 08:46:01;;;;;;;15.23;9.23;;;;;;;22.20;75.76;98765.03;4980867;28;20228;-56
2022/08/28 08:48:31;;;;;;;12.98;9.88;;;;;;;21.70;77.05;98759.88;4976453;28;20459;-56
2022/08/28 08:51:02;;;;;;;10.70;9.17;;;;;;;21.66;78.46;98757.66;4980983;28;20768;-55
2022/08/28 08:53:42;;;;;;;11.27;9.10;;;;;;;21.65;78.85;98766.66;4980129;28;20753;-56
2022/08/28 08:56:14;;;;;;;11.43;9.40;;;;;;;21.79;77.58;98761.22;4981102;28;20229;-56
2022/08/28 08:58:46;;;;;;;11.97;8.87;;;;;;;21.80;77.55;98766.28;4983532;28;20361;-56
2022/08/28 09:01:19;;;;;;;11.23;9.37;;;;;;;21.46;78.85;98764.97;4978672;28;20226;-55
2022/08/28 09:03:55;;;;;;;11.53;9.23;;;;;;;21.21;79.94;98771.09;4983542;28;20324;-55
2022/08/28 09:06:30;;;;;;;10.60;8.97;;;;;;;21.43;79.38;98766.22;4978472;28;20636;-55
2022/08/28 09:09:01;;;;;;;11.70;8.77;;;;;;;21.37;78.43;98765.25;4983051;28;20306;-56
2022/08/28 09:11:44;;;;;;;14.53;9.20;;;;;;;21.53;77.55;98771.84;4979609;28;20238;-55
2022/08/28 09:14:23;;;;;;;10.57;8.67;;;;;;;21.64;77.02;98767.69;4978862;28;20237;-55
2022/08/28 09:16:50;;;;;;;8.97;7.60;;;;;;;22.10;75.52;98772.72;4982073;28;21009;-55
2022/08/28 09:19:19;;;;;;;10.83;8.57;;;;;;;21.97;73.59;98769.19;4979243;28;20230;-56
2022/08/28 09:21:48;;;;;;;11.80;8.73;;;;;;;22.00;73.09;98765.25;4981452;28;20228;-56
2022/08/28 09:24:22;;;;;;;11.27;8.40;;;;;;;22.04;74.02;98770.94;4978354;28;20249;-56
2022/08/28 09:26:59;;;;;;;11.77;9.00;;;;;;;22.15;75.02;98777.34;4982955;28;20325;-56
2022/08/28 09:29:31;;;;;;;11.63;8.63;;;;;;;21.94;76.27;98780.25;4976975;28;20230;-55
2022/08/28 09:32:16;;;;;;;10.13;9.03;;;;;;;22.14;74.84;98781.06;4979142;28;20320;-55
2022/08/28 09:35:00;;;;;;;11.83;9.50;;;;;;;22.09;73.77;98781.72;4978582;28;20240;-56
2022/08/28 09:37:30;;;;;;;12.50;9.03;;;;;;;22.11;73.64;98777.81;4978041;28;20329;-57
2022/08/28 09:43:25;;;;;;;12.43;8.73;;;;;;;22.27;73.89;98776.38;4981402;28;20546;-56
2022/08/28 09:43:30;;;;;;;9.43;8.43;;;;;;;22.12;73.93;98779.44;4976510;28;20684;-56
2022/08/28 09:46:01;;;;;;;11.33;8.77;;;;;;;21.98;73.01;98785.94;4983178;28;20265;-56
2022/08/28 09:48:34;;;;;;;10.77;8.33;;;;;;;22.10;74.25;98776.19;4978107;28;20695;-56
2022/08/28 09:51:03;;;;;;;13.30;9.37;;;;;;;22.10;72.95;98776.19;4981596;28;20581;-56
2022/08/28 09:53:32;;;;;;;13.20;8.80;;;;;;;21.83;72.07;98784.44;4978226;28;20325;-56
2022/08/28 09:56:07;;;;;;;9.93;8.93;;;;;;;21.90;72.86;98778.25;4981719;28;20240;-55
2022/08/28 09:58:39;;;;;;;10.63;9.40;;;;;;;21.96;72.58;98780.00;4979243;28;20247;-53
2022/08/28 10:01:21;;;;;;;12.60;8.60;;;;;;;21.93;72.42;98775.97;4977359;28;20310;-54
2022/08/28 10:03:55;;;;;;;12.13;9.07;;;;;;;22.20;71.86;98782.81;4980413;28;20235;-56
2022/08/28 10:06:26;;;;;;;9.97;8.73;;;;;;;22.18;73.70;98782.22;4978519;28;20242;-56
2022/08/28 10:09:03;;;;;;;10.67;9.30;;;;;;;22.15;71.68;98780.00;4981797;28;20278;-56
2022/08/28 10:11:51;;;;;;;10.30;9.20;;;;;;;22.02;72.51;98787.09;4979137;28;20249;-54
2022/08/28 10:14:32;;;;;;;10.60;8.80;;;;;;;22.00;73.26;98781.19;4978317;28;20225;-56
2022/08/28 10:17:21;;;;;;;15.60;9.10;;;;;;;22.05;73.98;98780.56;4979531;28;20238;-56
2022/08/28 10:19:54;;;;;;;16.97;8.90;;;;;;;22.23;72.81;98785.03;4977531;28;20238;-55
2022/08/28 10:22:32;;;;;;;13.30;8.87;;;;;;;22.22;72.96;98781.56;4976085;28;20585;-55
2022/08/28 10:25:13;;;;;;;13.60;9.07;;;;;;;22.40;71.35;98788.72;4979196;28;20228;-56
2022/08/28 10:27:52;;;;;;;13.50;9.30;;;;;;;22.45;69.24;98779.28;4978890;28;20245;-55
2022/08/28 10:30:22;;;;;;;11.23;8.67;;;;;;;22.67;69.90;98784.91;4973663;28;20238;-55
2022/08/28 10:33:14;;;;;;;10.37;8.90;;;;;;;22.69;68.89;98778.34;4981008;28;20279;-55
2022/08/28 10:35:50;;;;;;;10.43;9.20;;;;;;;22.76;68.06;98774.78;4965144;28;20292;-53
2022/08/28 10:38:23;;;;;;;12.70;9.07;;;;;;;22.55;69.88;98771.56;4977205;28;20215;-56
2022/08/28 10:40:55;;;;;;;12.10;9.03;;;;;;;22.83;68.06;98783.44;4980945;28;20242;-55
2022/08/28 10:43:30;;;;;;;13.00;9.67;;;;;;;22.77;68.83;98779.84;4979486;28;20230;-56
2022/08/28 10:46:03;;;;;;;19.40;9.27;;;;;;;22.97;68.37;98784.06;4983360;28;20265;-55
2022/08/28 10:48:39;;;;;;;10.15;8.90;;;;;;;22.76;68.55;98788.06;4979290;28;20436;-56
2022/08/28 10:51:14;;;;;;;10.17;8.60;;;;;;;22.72;68.39;98777.06;4984512;28;20290;-56
2022/08/28 10:53:46;;;;;;;9.90;8.37;;;;;;;22.61;69.71;98780.47;4984645;28;20239;-56
2022/08/28 10:56:16;;;;;;;12.60;8.30;;;;;;;22.72;68.58;98778.91;4979260;28;20222;-56
2022/08/28 10:58:48;;;;;;;11.23;9.30;;;;;;;22.82;67.49;98787.97;4983762;28;20363;-56
2022/08/28 11:01:23;;;;;;;10.73;8.00;;;;;;;22.66;68.61;98784.09;4979854;28;20714;-54
2022/08/28 11:03:52;;;;;;;10.00;8.50;;;;;;;22.66;67.43;98778.78;4981545;28;20313;-57
2022/08/28 11:06:26;;;;;;;12.77;8.23;;;;;;;22.86;67.40;98785.63;4978776;28;20227;-56
2022/08/28 11:08:56;;;;;;;12.53;7.83;;;;;;;22.61;67.03;98788.47;4983370;28;20650;-55
2022/08/28 11:11:43;;;;;;;10.50;8.33;;;;;;;22.84;66.44;98782.41;4980587;28;20219;-56
2022/08/28 11:14:22;;;;;;;12.23;7.47;;;;;;;22.93;66.41;98780.25;4980289;28;20289;-56
2022/08/28 11:16:49;;;;;;;10.47;8.47;;;;;;;23.16;65.90;98779.47;4982005;28;20250;-56
2022/08/28 11:19:41;;;;;;;16.53;8.67;;;;;;;23.38;63.96;98789.59;4979426;28;20258;-55
2022/08/28 11:22:13;;;;;;;10.67;7.73;;;;;;;23.63;63.41;98786.69;4979701;28;20247;-55
2022/08/28 11:24:49;;;;;;;9.70;7.13;;;;;;;23.87;63.86;98787.47;4982233;28;20229;-57
2022/08/28 11:27:25;;;;;;;14.97;8.27;;;;;;;23.70;62.44;98782.06;4976659;28;20241;-57
2022/08/28 11:30:29;;;;;;;12.97;7.60;;;;;;;23.79;61.26;98784.34;4980570;28;20238;-58
2022/08/28 11:33:01;;;;;;;10.73;7.83;;;;;;;23.87;61.23;98778.66;4978454;28;20241;-58